createdAt,value
2023-07-25T00:02:26.779Z,11.47
2023-07-25T00:05:29.880Z,11.37
2023-07-25T00:08:33.650Z,10.30
2023-07-25T00:11:38.260Z,11.27
2023-07-25T00:14:41.354Z,11.67
2023-07-25T00:17:44.497Z,11.40
2023-07-25T00:20:47.589Z,11.50
2023-07-25T00:23:50.630Z,11.47
2023-07-25T00:26:55.054Z,10.73
2023-07-25T00:29:58.180Z,10.40
2023-07-25T00:33:01.279Z,10.80
2023-07-25T00:36:04.541Z,10.97
2023-07-25T00:39:07.588Z,11.57
2023-07-25T00:42:12.075Z,11.60
2023-07-25T00:45:15.151Z,11.20
2023-07-25T00:48:18.504Z,11.57
2023-07-25T00:51:22.150Z,11.53
2023-07-25T00:54:25.303Z,12.40
2023-07-25T00:57:31.907Z,11.50
2023-07-25T01:00:35.021Z,11.37
2023-07-25T01:03:40.185Z,11.53
2023-07-25T01:06:44.013Z,11.93
2023-07-25T01:09:48.138Z,11.20
2023-07-25T01:12:52.684Z,12.40
2023-07-25T01:15:56.516Z,12.90
2023-07-25T01:19:01.375Z,12.50
2023-07-25T01:22:04.657Z,12.33
2023-07-25T01:25:10.017Z,12.30
2023-07-25T01:28:13.011Z,11.57
2023-07-25T01:31:16.140Z,11.30
2023-07-25T01:34:19.245Z,11.50
2023-07-25T01:37:22.266Z,11.70
2023-07-25T01:40:26.771Z,11.40
2023-07-25T01:43:29.835Z,12.60
2023-07-25T01:46:32.951Z,12.57
2023-07-25T01:49:36.050Z,12.37
2023-07-25T01:52:39.048Z,11.53
2023-07-25T01:55:43.478Z,11.40
2023-07-25T01:58:46.553Z,11.73
2023-07-25T02:01:49.752Z,12.30
2023-07-25T02:04:52.893Z,13.53
2023-07-25T02:07:56.071Z,12.20
2023-07-25T02:11:00.626Z,13.07
2023-07-25T02:14:03.766Z,12.67
2023-07-25T02:17:07.708Z,14.10
2023-07-25T02:20:11.431Z,12.80
2023-07-25T02:23:14.499Z,12.37
2023-07-25T02:26:18.915Z,13.10
2023-07-25T02:29:22.074Z,12.70
2023-07-25T02:32:25.294Z,12.80
2023-07-25T02:35:28.449Z,12.90
2023-07-25T02:38:31.522Z,12.97
2023-07-25T02:41:35.931Z,13.00
2023-07-25T02:44:38.938Z,12.43
2023-07-25T02:47:41.997Z,12.50
2023-07-25T02:50:45.089Z,12.83
2023-07-25T02:53:48.196Z,12.80
2023-07-25T02:56:52.666Z,13.83
2023-07-25T02:59:55.790Z,15.90
2023-07-25T03:02:58.918Z,14.00
2023-07-25T03:06:02.091Z,12.97
2023-07-25T03:09:05.499Z,13.03
2023-07-25T03:12:10.628Z,12.73
2023-07-25T03:15:13.661Z,12.20
2023-07-25T03:18:16.717Z,12.47
2023-07-25T03:21:19.851Z,13.10
2023-07-25T03:24:22.966Z,12.90
2023-07-25T03:27:27.887Z,22.67
2023-07-25T03:30:30.974Z,30.20
2023-07-25T03:33:34.119Z,92.63
2023-07-25T03:36:38.534Z,67.43
2023-07-25T03:39:41.593Z,31.30
2023-07-25T03:42:46.142Z,58.23
2023-07-25T03:45:49.513Z,31.87
2023-07-25T03:48:52.594Z,26.10
2023-07-25T03:51:55.649Z,32.33
2023-07-25T03:54:58.743Z,43.67
2023-07-25T03:58:03.229Z,27.90
2023-07-25T04:01:06.330Z,19.20
2023-07-25T04:04:09.523Z,17.37
2023-07-25T04:07:12.634Z,14.53
2023-07-25T04:10:15.768Z,17.10
2023-07-25T04:13:20.257Z,14.27
2023-07-25T04:16:23.553Z,13.60
2023-07-25T04:19:26.608Z,13.20
2023-07-25T04:22:30.026Z,14.23
2023-07-25T04:25:33.105Z,13.20
2023-07-25T04:28:37.611Z,12.93
2023-07-25T04:31:40.722Z,12.97
2023-07-25T04:34:43.796Z,15.77
2023-07-25T04:37:46.797Z,13.97
2023-07-25T04:40:49.816Z,14.53
2023-07-25T04:43:54.389Z,14.20
2023-07-25T04:46:57.494Z,13.27
2023-07-25T04:50:00.620Z,13.67
2023-07-25T04:53:03.665Z,12.50
2023-07-25T04:56:07.108Z,13.23
2023-07-25T04:59:11.508Z,14.00
2023-07-25T05:02:14.614Z,12.97
2023-07-25T05:05:17.792Z,12.80
2023-07-25T05:08:20.752Z,13.60
2023-07-25T05:11:23.895Z,15.00
2023-07-25T05:14:28.338Z,15.20
2023-07-25T05:17:31.467Z,14.33
2023-07-25T05:20:34.529Z,16.43
2023-07-25T05:23:37.566Z,17.90
2023-07-25T05:26:40.651Z,17.10
2023-07-25T05:29:45.248Z,12.57
2023-07-25T05:32:50.412Z,14.60
2023-07-25T05:36:01.755Z,17.93
2023-07-25T05:39:05.087Z,16.90
2023-07-25T05:42:08.744Z,16.40
2023-07-25T05:45:13.372Z,20.50
2023-07-25T05:48:16.459Z,14.67
2023-07-25T05:51:19.515Z,15.50
2023-07-25T05:54:22.934Z,16.17
2023-07-25T05:57:26.074Z,14.93
2023-07-25T06:00:30.599Z,13.60
2023-07-25T06:03:33.838Z,13.80
2023-07-25T06:06:37.044Z,14.53
2023-07-25T06:09:40.122Z,14.10
2023-07-25T06:12:43.697Z,14.20
2023-07-25T06:15:48.372Z,14.20
2023-07-25T06:18:51.490Z,14.33
2023-07-25T06:21:54.549Z,14.20
2023-07-25T06:24:57.805Z,13.90
2023-07-25T06:28:01.020Z,13.93
2023-07-25T06:31:05.641Z,14.23
2023-07-25T06:34:08.861Z,13.73
2023-07-25T06:37:12.093Z,13.93
2023-07-25T06:40:15.146Z,13.20
2023-07-25T06:43:18.157Z,13.10
2023-07-25T06:46:26.131Z,12.90
2023-07-25T06:49:29.306Z,13.83
2023-07-25T06:52:32.416Z,13.63
2023-07-25T06:55:35.875Z,13.40
2023-07-25T06:58:39.027Z,13.30
2023-07-25T07:01:43.493Z,13.00
2023-07-25T07:04:47.069Z,12.97
2023-07-25T07:07:50.557Z,13.37
2023-07-25T07:10:54.887Z,13.83
2023-07-25T07:13:58.009Z,12.60
2023-07-25T07:17:02.516Z,14.60
2023-07-25T07:20:06.294Z,14.30
2023-07-25T07:23:09.374Z,14.20
2023-07-25T07:26:12.426Z,14.90
2023-07-25T07:29:15.600Z,15.50
2023-07-25T07:32:20.137Z,15.30
2023-07-25T07:35:23.233Z,15.50
2023-07-25T07:38:26.275Z,14.90
2023-07-25T07:41:29.733Z,14.60
2023-07-25T07:44:33.067Z,15.83
2023-07-25T07:47:37.586Z,15.40
2023-07-25T07:50:40.783Z,14.77
2023-07-25T07:53:43.803Z,15.20
2023-07-25T07:56:46.976Z,14.87
2023-07-25T07:59:50.053Z,15.90
2023-07-25T08:02:54.588Z,14.50
2023-07-25T08:05:58.651Z,14.30
2023-07-25T08:09:01.699Z,14.90
2023-07-25T08:12:05.419Z,13.43
2023-07-25T08:15:09.183Z,14.27
2023-07-25T08:18:13.761Z,13.83
2023-07-25T08:21:16.819Z,14.10
2023-07-25T08:24:19.828Z,14.47
2023-07-25T08:27:22.979Z,14.67
2023-07-25T08:30:26.067Z,13.80
2023-07-25T08:33:32.984Z,14.80
2023-07-25T08:36:36.227Z,13.47
2023-07-25T08:39:39.324Z,13.50
2023-07-25T08:42:44.420Z,12.37
2023-07-25T08:45:50.445Z,12.73
2023-07-25T08:49:01.732Z,12.50
2023-07-25T08:52:06.756Z,12.70
2023-07-25T08:55:10.561Z,12.53
2023-07-25T08:58:15.729Z,13.87
2023-07-25T09:01:19.540Z,13.50
2023-07-25T09:04:25.354Z,12.80
2023-07-25T09:07:28.665Z,12.77
2023-07-25T09:10:32.366Z,12.60
2023-07-25T09:13:36.036Z,13.70
2023-07-25T09:16:39.247Z,13.70
2023-07-25T09:19:43.830Z,12.90
2023-07-25T09:22:49.092Z,12.63
2023-07-25T09:26:04.839Z,12.70
2023-07-25T09:29:08.105Z,11.87
2023-07-25T09:32:20.388Z,16.50
2023-07-25T09:35:26.051Z,13.73
2023-07-25T09:38:29.170Z,13.57
2023-07-25T09:41:32.793Z,12.50
2023-07-25T09:44:36.156Z,12.60
2023-07-25T09:47:40.926Z,12.70
2023-07-25T09:50:46.473Z,11.70
2023-07-25T09:53:53.644Z,12.03
2023-07-25T09:56:56.768Z,11.50
2023-07-25T10:00:01.132Z,11.97
2023-07-25T10:03:04.512Z,11.87
2023-07-25T10:06:10.027Z,12.23
2023-07-25T10:09:15.185Z,13.00
2023-07-25T10:12:18.308Z,12.70
2023-07-25T10:15:21.829Z,12.67
2023-07-25T10:18:28.561Z,12.00
2023-07-25T10:21:48.659Z,13.50
2023-07-25T10:24:51.884Z,12.83
2023-07-25T10:27:57.177Z,12.73
2023-07-25T10:31:00.356Z,12.27
2023-07-25T10:34:05.461Z,12.53
2023-07-25T10:37:24.146Z,13.10
2023-07-25T10:40:27.283Z,12.10
2023-07-25T10:43:32.327Z,12.30
2023-07-25T10:46:36.543Z,11.37
2023-07-25T10:49:58.269Z,12.03
2023-07-25T10:53:16.110Z,11.80
2023-07-25T10:56:20.348Z,12.70
2023-07-25T10:59:23.572Z,11.23
2023-07-25T11:02:33.700Z,11.30
2023-07-25T11:05:36.887Z,11.53
2023-07-25T11:08:43.028Z,11.90
2023-07-25T11:11:47.482Z,11.17
2023-07-25T11:14:52.190Z,11.77
2023-07-25T11:17:55.495Z,11.87
2023-07-25T11:21:02.746Z,11.77
2023-07-25T11:24:08.494Z,11.17
2023-07-25T11:27:11.767Z,11.83
2023-07-25T11:30:17.215Z,11.43
2023-07-25T11:33:20.934Z,10.83
2023-07-25T11:36:24.089Z,11.50
2023-07-25T11:39:28.776Z,11.10
2023-07-25T11:42:31.891Z,11.87
2023-07-25T11:45:35.277Z,11.70
2023-07-25T11:48:38.465Z,10.93
2023-07-25T11:51:42.675Z,10.10
2023-07-25T11:54:47.598Z,10.23
2023-07-25T11:57:52.437Z,11.03
2023-07-25T12:00:55.924Z,10.87
2023-07-25T12:04:01.706Z,10.63
2023-07-25T12:07:05.248Z,11.40
2023-07-25T12:10:10.144Z,10.67
2023-07-25T12:13:13.590Z,10.20
2023-07-25T12:16:30.771Z,9.63
2023-07-25T12:19:34.316Z,10.60
2023-07-25T12:22:38.922Z,10.10
2023-07-25T12:25:43.888Z,10.00
2023-07-25T12:28:47.398Z,9.83
2023-07-25T12:31:50.770Z,9.33
2023-07-25T12:35:01.081Z,9.47
2023-07-25T12:38:04.237Z,10.37
2023-07-25T12:41:09.703Z,9.83
2023-07-25T12:44:12.994Z,8.37
2023-07-25T12:47:16.038Z,8.63
2023-07-25T12:50:19.898Z,9.10
2023-07-25T12:53:22.930Z,8.80
2023-07-25T12:56:27.414Z,7.47
2023-07-25T12:59:30.542Z,7.60
2023-07-25T13:02:33.770Z,7.70
2023-07-25T13:05:37.126Z,7.63
2023-07-25T13:08:40.355Z,7.00
2023-07-25T13:11:45.768Z,6.37
2023-07-25T13:14:48.831Z,7.10
2023-07-25T13:17:51.988Z,5.10
2023-07-25T13:20:56.138Z,6.60
2023-07-25T13:23:59.334Z,5.77
2023-07-25T13:27:03.889Z,5.60
2023-07-25T13:30:08.197Z,5.73
2023-07-25T13:33:11.589Z,5.87
2023-07-25T13:36:14.912Z,6.30
2023-07-25T13:39:18.810Z,5.40
2023-07-25T13:42:24.649Z,6.40
2023-07-25T13:45:38.014Z,4.50
2023-07-25T13:48:49.202Z,5.57
2023-07-25T13:51:52.324Z,5.50
2023-07-25T13:54:55.442Z,5.43
2023-07-25T13:58:09.941Z,4.57
2023-07-25T14:01:13.551Z,5.30
2023-07-25T14:04:16.742Z,6.17
2023-07-25T14:07:20.499Z,5.70
2023-07-25T14:10:23.638Z,5.70
2023-07-25T14:13:28.338Z,5.87
2023-07-25T14:16:31.413Z,5.30
2023-07-25T14:19:34.846Z,5.00
2023-07-25T14:22:37.938Z,5.00
2023-07-25T14:31:49.866Z,4.77
2023-07-25T14:34:53.215Z,4.67
2023-07-25T14:37:58.162Z,5.20
2023-07-25T14:41:02.257Z,5.40
2023-07-25T14:44:06.946Z,5.13
2023-07-25T14:47:10.060Z,6.65
2023-07-25T14:50:13.254Z,7.90
2023-07-25T14:53:16.373Z,8.60
2023-07-25T14:56:19.527Z,8.93
2023-07-25T14:59:24.530Z,9.35
2023-07-25T15:02:27.743Z,8.90
2023-07-25T15:05:31.075Z,8.80
2023-07-25T15:08:34.186Z,8.60
2023-07-25T15:11:39.632Z,9.00
2023-07-25T15:14:44.247Z,9.20
2023-07-25T15:17:47.307Z,9.10
2023-07-25T15:20:53.534Z,9.25
2023-07-25T15:23:56.640Z,9.27
2023-07-25T15:26:59.746Z,9.20
2023-07-25T15:30:04.304Z,8.77
2023-07-25T15:33:07.619Z,9.95
2023-07-25T15:36:11.237Z,9.80
2023-07-25T15:39:14.446Z,10.05
2023-07-25T15:42:17.798Z,9.90
2023-07-25T15:45:22.303Z,10.00
2023-07-25T15:48:25.377Z,10.30
2023-07-25T15:51:28.711Z,10.50
2023-07-25T15:54:32.067Z,10.30
2023-07-25T15:57:35.152Z,10.10
2023-07-25T16:00:39.903Z,10.10
2023-07-25T16:03:48.025Z,9.80
2023-07-25T16:06:51.658Z,9.32
2023-07-25T16:09:54.711Z,8.60
2023-07-25T16:13:00.279Z,8.70
2023-07-25T16:16:07.832Z,8.50
2023-07-25T16:19:11.501Z,8.90
2023-07-25T16:22:14.745Z,8.63
2023-07-25T16:25:17.956Z,8.30
2023-07-25T16:28:20.993Z,8.63
2023-07-25T16:31:32.761Z,7.93
2023-07-25T16:34:36.716Z,8.30
2023-07-25T16:37:39.846Z,8.20
2023-07-25T16:40:43.076Z,7.90
2023-07-25T16:43:46.108Z,8.87
2023-07-25T16:46:50.669Z,8.17
2023-07-25T16:49:53.788Z,8.67
2023-07-25T16:52:56.913Z,8.30
2023-07-25T16:56:00.104Z,8.30
2023-07-25T16:59:03.317Z,8.07
2023-07-25T17:02:08.482Z,8.20
2023-07-25T17:05:14.669Z,8.03
2023-07-25T17:08:17.991Z,7.70
2023-07-25T17:11:21.077Z,7.13
2023-07-25T17:14:24.148Z,7.90
2023-07-25T17:17:29.093Z,7.40
2023-07-25T17:20:32.262Z,7.03
2023-07-25T17:23:35.437Z,7.33
2023-07-25T17:26:38.842Z,7.50
2023-07-25T17:29:41.924Z,7.30
2023-07-25T17:32:46.617Z,7.10
2023-07-25T17:35:49.717Z,7.03
2023-07-25T17:38:52.926Z,7.70
2023-07-25T17:41:56.026Z,7.50
2023-07-25T17:44:59.077Z,7.10
2023-07-25T17:48:03.553Z,6.83
2023-07-25T17:51:06.702Z,6.80
2023-07-25T17:54:09.840Z,7.00
2023-07-25T17:57:12.928Z,7.20
2023-07-25T18:00:16.297Z,6.80
2023-07-25T18:03:21.750Z,6.50
2023-07-25T18:06:24.906Z,6.80
2023-07-25T18:09:28.165Z,6.30
2023-07-25T18:12:31.312Z,6.83
2023-07-25T18:15:34.688Z,6.70
2023-07-25T18:18:39.159Z,6.37
2023-07-25T18:21:42.190Z,6.13
2023-07-25T18:24:45.343Z,7.20
2023-07-25T18:27:48.451Z,6.50
2023-07-25T18:30:55.831Z,6.53
2023-07-25T18:34:00.407Z,6.30
2023-07-25T18:37:03.715Z,6.63
2023-07-25T18:40:08.073Z,6.43
2023-07-25T18:43:18.350Z,6.20
2023-07-25T18:46:21.457Z,6.47
2023-07-25T18:49:26.014Z,6.30
2023-07-25T18:52:29.326Z,6.33
2023-07-25T18:55:32.396Z,6.30
2023-07-25T18:58:35.517Z,6.40
2023-07-25T19:01:38.609Z,6.23
2023-07-25T19:04:44.502Z,6.40
2023-07-25T19:07:47.672Z,6.40
2023-07-25T19:10:50.790Z,6.73
2023-07-25T19:13:53.899Z,6.03
2023-07-25T19:16:58.265Z,6.33
2023-07-25T19:20:05.062Z,6.07
2023-07-25T19:23:23.693Z,6.07
2023-07-25T19:26:28.813Z,6.47
2023-07-25T19:29:31.924Z,6.00
2023-07-25T19:32:34.986Z,6.57
2023-07-25T19:35:40.280Z,6.10
2023-07-25T19:38:43.703Z,6.00
2023-07-25T19:41:46.764Z,5.87
2023-07-25T19:44:49.920Z,5.80
2023-07-25T19:47:53.029Z,6.23
2023-07-25T19:50:57.544Z,5.87
2023-07-25T19:54:04.509Z,6.47
2023-07-25T19:57:08.057Z,5.83
2023-07-25T20:00:11.990Z,5.10
2023-07-25T20:03:15.195Z,5.50
2023-07-25T20:06:20.017Z,5.37
2023-07-25T20:09:23.243Z,6.17
2023-07-25T20:12:26.270Z,5.73
2023-07-25T20:15:29.497Z,5.50
2023-07-25T20:18:32.861Z,5.00
2023-07-25T20:21:37.322Z,5.67
2023-07-25T20:24:40.539Z,6.07
2023-07-25T20:27:43.617Z,9.10
2023-07-25T20:30:46.694Z,9.10
2023-07-25T20:33:49.795Z,9.27
2023-07-25T20:36:54.285Z,8.40
2023-07-25T20:39:57.335Z,8.40
2023-07-25T20:43:00.442Z,8.43
2023-07-25T20:46:04.705Z,8.20
2023-07-25T20:49:07.972Z,8.90
2023-07-25T20:52:12.467Z,8.53
2023-07-25T20:55:15.590Z,8.07
2023-07-25T20:58:18.663Z,8.10
2023-07-25T21:01:21.776Z,8.30
2023-07-25T21:04:28.913Z,8.50
2023-07-25T21:07:36.372Z,9.10
2023-07-25T21:10:41.681Z,8.20
2023-07-25T21:13:47.128Z,8.43
2023-07-25T21:16:50.209Z,8.30
2023-07-25T21:19:53.262Z,8.10
2023-07-25T21:22:57.702Z,8.37
2023-07-25T21:26:00.715Z,9.40
2023-07-25T21:29:03.884Z,9.43
2023-07-25T21:32:07.626Z,8.70
2023-07-25T21:35:10.693Z,9.50
2023-07-25T21:38:15.155Z,8.90
2023-07-25T21:41:18.236Z,9.20
2023-07-25T21:44:21.263Z,8.67
2023-07-25T21:47:24.458Z,8.13
2023-07-25T21:50:27.546Z,8.20
2023-07-25T21:53:32.786Z,9.07
2023-07-25T21:56:35.867Z,8.30
2023-07-25T21:59:38.984Z,8.63
2023-07-25T22:02:42.781Z,9.20
2023-07-25T22:05:45.909Z,8.80
2023-07-25T22:08:50.599Z,8.30
2023-07-25T22:11:55.758Z,8.93
2023-07-25T22:14:58.880Z,9.00
2023-07-25T22:18:01.963Z,8.93
2023-07-25T22:21:05.161Z,9.33
2023-07-25T22:24:09.684Z,7.80
2023-07-25T22:27:12.786Z,8.80
2023-07-25T22:30:16.288Z,8.10
2023-07-25T22:33:19.478Z,9.10
2023-07-25T22:36:22.543Z,8.77
2023-07-25T22:39:26.982Z,8.73
2023-07-25T22:42:30.010Z,8.53
2023-07-25T22:45:33.097Z,7.70
2023-07-25T22:48:36.219Z,9.30
2023-07-25T22:51:39.290Z,8.97
2023-07-25T22:54:43.838Z,8.73
2023-07-25T22:57:47.219Z,9.03
2023-07-25T23:00:50.481Z,7.80
2023-07-25T23:03:53.579Z,8.00
2023-07-25T23:06:56.669Z,8.40
2023-07-25T23:10:01.277Z,8.10
2023-07-25T23:13:04.439Z,7.90
2023-07-25T23:16:08.020Z,8.90
2023-07-25T23:19:11.138Z,8.10
2023-07-25T23:22:14.246Z,7.80
2023-07-25T23:25:18.871Z,8.70
2023-07-25T23:28:21.951Z,7.80
2023-07-25T23:31:25.054Z,7.90
2023-07-25T23:34:30.059Z,7.40
2023-07-25T23:37:33.133Z,7.50
2023-07-25T23:40:37.800Z,8.20
2023-07-25T23:43:40.886Z,7.97
2023-07-25T23:46:43.945Z,8.43
2023-07-25T23:49:47.123Z,8.47
2023-07-25T23:52:50.198Z,7.83
2023-07-25T23:55:54.670Z,7.90
2023-07-25T23:58:57.714Z,8.57
